GRZ502 Details

Departure: Juneau International Airport (PAJN)
Arrival: Ted Stevens Anchorage International Airport (PANC) at N/A
Route: CHLKT1 ALATY JOH WITTI4
Notes:


Current Weather Information
PAJN 191553Z 08008KT 10SM SCT070 SCT130 11/03 A2992 RMK AO2 SLP132 T01110028
PANC 191553Z 00000KT 10SM BKN025 BKN200 09/02 A2995 RMK AO2 SLP142 FU BKN025 T00890022